Time;durP1;ratioP1;P1;durP2;ratioP2;P2;SDS_P1;SDS_P2;PMS_P1;PMS_P2;Temp;Humidity;BMP_temperature;BMP_pressure;BME280_temperature;BME280_humidity;BME280_pressure;Samples;Min_cycle;Max_cycle;Signal;HPM_P1;HPM_P2
2023/10/15 00:01:30;;;;;;;0.30;0.30;;;9.90;99.90;;;;;;4398193;32;20529;-60
2023/10/15 00:03:56;;;;;;;1.10;0.45;;;9.70;99.90;;;;;;4400029;32;20102;-61
2023/10/15 00:06:22;;;;;;;0.20;0.20;;;9.80;99.90;;;;;;4399253;32;20444;-59
2023/10/15 00:08:47;;;;;;;0.20;0.20;;;9.90;99.90;;;;;;4398961;32;20097;-61
2023/10/15 00:11:14;;;;;;;0.30;0.30;;;9.80;99.90;;;;;;4397487;32;20096;-59
2023/10/15 00:13:39;;;;;;;0.20;0.20;;;9.90;99.90;;;;;;4382685;32;20128;-61
2023/10/15 00:16:05;;;;;;;0.30;0.30;;;9.80;99.90;;;;;;4386460;32;20061;-61
2023/10/15 00:18:30;;;;;;;0.35;0.35;;;9.70;99.90;;;;;;4386729;32;20545;-60
2023/10/15 00:21:06;;;;;;;0.22;0.22;;;9.60;99.90;;;;;;4402574;32;20149;-59
2023/10/15 00:23:33;;;;;;;0.20;0.20;;;9.60;99.90;;;;;;4390936;32;20094;-61
2023/10/15 00:25:59;;;;;;;0.30;0.25;;;9.60;99.90;;;;;;4401700;32;20066;-59
2023/10/15 00:28:29;;;;;;;0.40;0.40;;;9.60;99.90;;;;;;4399757;32;20090;-61
2023/10/15 00:30:54;;;;;;;0.30;0.30;;;9.50;99.90;;;;;;4388137;32;20081;-61
2023/10/15 00:33:20;;;;;;;0.20;0.20;;;9.50;99.90;;;;;;4402867;32;20124;-61
2023/10/15 00:35:45;;;;;;;4.45;0.57;;;9.50;99.90;;;;;;4386631;32;20058;-61
2023/10/15 00:38:15;;;;;;;0.20;0.20;;;9.40;99.90;;;;;;4398210;32;20483;-61
2023/10/15 00:40:41;;;;;;;2.80;0.90;;;9.40;99.90;;;;;;4386497;32;20073;-60
2023/10/15 00:43:07;;;;;;;0.60;0.60;;;9.30;99.90;;;;;;4400998;32;20531;-60
2023/10/15 00:45:39;;;;;;;0.20;0.20;;;9.40;99.90;;;;;;4402288;32;20082;-61
2023/10/15 00:50:43;;;;;;;0.30;0.30;;;9.40;99.90;;;;;;4398478;32;20050;-60
2023/10/15 00:53:21;;;;;;;0.60;0.60;;;9.50;99.90;;;;;;4389887;32;20085;-61
2023/10/15 00:55:49;;;;;;;0.60;0.60;;;9.40;99.90;;;;;;4401652;32;20082;-61
2023/10/15 00:58:21;;;;;;;0.30;0.30;;;9.50;99.90;;;;;;4397145;32;20069;-61
2023/10/15 01:00:52;;;;;;;1.95;0.25;;;9.40;99.90;;;;;;4383119;32;20086;-60
2023/10/15 01:03:30;;;;;;;0.30;0.30;;;9.40;99.90;;;;;;4396324;32;20066;-60
2023/10/15 01:06:03;;;;;;;0.28;0.28;;;9.40;99.90;;;;;;4400637;32;20161;-60
2023/10/15 01:08:35;;;;;;;0.20;0.20;;;9.40;99.90;;;;;;4398112;32;20059;-60
2023/10/15 01:11:18;;;;;;;0.60;0.60;;;9.40;99.90;;;;;;4397799;32;20078;-61
2023/10/15 01:13:44;;;;;;;0.30;0.30;;;9.40;99.90;;;;;;4399330;32;20152;-60
2023/10/15 01:16:12;;;;;;;0.20;0.20;;;9.30;99.90;;;;;;4399803;32;20086;-58
2023/10/15 01:18:39;;;;;;;0.40;0.40;;;9.30;99.90;;;;;;4384005;32;20524;-60
2023/10/15 01:21:09;;;;;;;1.15;0.75;;;9.30;99.90;;;;;;4383247;32;20094;-61
2023/10/15 01:26:15;;;;;;;1.17;1.05;;;9.30;99.90;;;;;;4384146;32;20516;-60
2023/10/15 01:28:42;;;;;;;;;;;9.20;99.90;;;;;;4400053;32;20089;-61
2023/10/15 01:31:08;;;;;;;17.62;0.73;;;9.20;99.90;;;;;;4397413;32;20811;-61
2023/10/15 01:33:46;;;;;;;0.50;0.50;;;9.20;99.90;;;;;;4399520;32;20066;-61
2023/10/15 01:36:16;;;;;;;0.25;0.25;;;9.30;99.90;;;;;;4398782;32;20140;-60
2023/10/15 01:38:44;;;;;;;0.30;0.30;;;9.20;99.90;;;;;;4398738;32;20074;-60
2023/10/15 01:41:13;;;;;;;0.20;0.20;;;9.20;99.90;;;;;;4398113;32;20098;-60
2023/10/15 01:43:39;;;;;;;2.62;0.62;;;9.20;99.90;;;;;;4400956;32;20597;-61
2023/10/15 01:46:10;;;;;;;0.20;0.20;;;9.20;99.90;;;;;;4402715;32;20555;-61
2023/10/15 01:48:40;;;;;;;0.30;0.30;;;9.20;99.90;;;;;;4398665;32;20066;-61
2023/10/15 01:51:06;;;;;;;0.77;0.77;;;9.20;99.90;;;;;;4371743;32;20078;-61
2023/10/15 01:53:37;;;;;;;0.43;0.43;;;9.20;99.90;;;;;;4399962;32;20123;-60
2023/10/15 01:56:04;;;;;;;6.12;0.75;;;9.20;99.90;;;;;;4400019;32;20124;-61
2023/10/15 01:58:31;;;;;;;1.10;0.75;;;9.20;99.90;;;;;;4383247;32;20082;-61
2023/10/15 02:01:05;;;;;;;0.43;0.43;;;9.30;99.90;;;;;;4399820;32;20086;-60
2023/10/15 02:03:31;;;;;;;14.43;0.73;;;9.20;99.90;;;;;;4387463;32;20130;-60
2023/10/15 02:06:04;;;;;;;0.22;0.22;;;9.20;99.90;;;;;;4386116;32;20093;-61
2023/10/15 02:08:30;;;;;;;3.92;0.90;;;9.10;99.90;;;;;;4387229;32;20090;-61
2023/10/15 02:10:56;;;;;;;2.75;0.90;;;9.10;99.90;;;;;;4386906;32;20090;-62
2023/10/15 02:13:22;;;;;;;1.45;0.43;;;9.10;99.90;;;;;;4384768;32;20314;-61
2023/10/15 02:15:49;;;;;;;2.08;0.50;;;9.00;99.90;;;;;;4373300;32;20431;-60
2023/10/15 02:18:17;;;;;;;0.30;0.30;;;9.00;99.90;;;;;;4383046;32;20062;-61
2023/10/15 02:20:45;;;;;;;0.30;0.30;;;9.00;99.90;;;;;;4387084;32;20077;-60
2023/10/15 02:23:12;;;;;;;0.20;0.20;;;9.00;99.90;;;;;;4386070;32;20123;-61
2023/10/15 02:25:46;;;;;;;0.20;0.20;;;9.00;99.90;;;;;;4385489;32;20093;-61
2023/10/15 02:28:16;;;;;;;0.50;0.50;;;9.00;99.90;;;;;;4382892;32;20513;-60
2023/10/15 02:30:46;;;;;;;0.20;0.20;;;9.00;99.90;;;;;;4385319;32;20125;-61
2023/10/15 02:33:16;;;;;;;0.30;0.30;;;9.00;99.90;;;;;;4398335;32;20143;-61
2023/10/15 02:35:45;;;;;;;0.40;0.40;;;9.00;99.90;;;;;;4396749;32;20095;-61
2023/10/15 02:38:12;;;;;;;3.00;0.90;;;9.00;99.90;;;;;;4395585;32;20110;-61
2023/10/15 02:41:09;;;;;;;1.15;0.95;;;9.00;99.90;;;;;;4398971;32;20132;-60
2023/10/15 02:43:25;;;;;;;0.22;0.22;;;8.90;99.90;;;;;;4385069;32;20081;-60
2023/10/15 02:45:50;;;;;;;0.20;0.20;;;8.90;99.90;;;;;;4387144;32;20109;-61
2023/10/15 02:48:19;;;;;;;0.25;0.25;;;8.90;99.90;;;;;;4398555;32;20526;-60
2023/10/15 02:51:07;;;;;;;0.40;0.40;;;8.90;99.90;;;;;;4398620;32;20149;-60
2023/10/15 02:53:40;;;;;;;0.20;0.20;;;8.90;99.90;;;;;;4385283;32;20346;-61
2023/10/15 02:56:13;;;;;;;1.75;1.00;;;8.90;99.90;;;;;;4398615;32;20085;-59
2023/10/15 02:58:40;;;;;;;0.50;0.50;;;8.90;99.90;;;;;;4394878;32;20061;-60
2023/10/15 03:01:23;;;;;;;0.45;0.45;;;8.90;99.90;;;;;;4400570;32;20149;-61
2023/10/15 03:03:50;;;;;;;0.57;0.57;;;8.80;99.90;;;;;;4386583;32;20089;-60
2023/10/15 03:06:24;;;;;;;0.20;0.20;;;8.90;99.90;;;;;;4387490;32;20082;-60
2023/10/15 03:08:51;;;;;;;2.33;1.70;;;8.80;99.90;;;;;;4398812;32;21731;-61
2023/10/15 03:11:19;;;;;;;10.02;0.93;;;8.80;99.90;;;;;;4374543;32;20098;-60
2023/10/15 03:14:16;;;;;;;0.75;0.75;;;8.70;99.90;;;;;;4384835;32;20069;-61
2023/10/15 03:16:31;;;;;;;0.20;0.20;;;8.60;99.90;;;;;;4387072;32;20176;-60
2023/10/15 03:18:57;;;;;;;0.30;0.30;;;8.60;99.90;;;;;;4384237;32;20101;-60
2023/10/15 03:21:26;;;;;;;0.40;0.40;;;8.70;99.90;;;;;;4400508;32;20077;-60
2023/10/15 03:23:55;;;;;;;0.30;0.30;;;8.70;99.90;;;;;;4400772;32;20458;-61
2023/10/15 03:26:22;;;;;;;1.55;0.98;;;8.70;99.90;;;;;;4371850;32;20091;-61
2023/10/15 03:28:51;;;;;;;0.40;0.40;;;8.60;99.90;;;;;;4398348;32;20069;-61
2023/10/15 03:31:17;;;;;;;0.30;0.30;;;8.70;99.90;;;;;;4385001;32;20132;-61
2023/10/15 03:33:59;;;;;;;0.20;0.20;;;8.70;99.90;;;;;;4399679;32;20101;-61
2023/10/15 03:36:25;;;;;;;5.15;1.02;;;8.60;99.90;;;;;;4396285;32;20747;-61
2023/10/15 03:38:51;;;;;;;0.20;0.20;;;8.50;99.90;;;;;;4397712;32;20102;-60
2023/10/15 03:41:39;;;;;;;1.73;0.80;;;8.50;99.90;;;;;;4397560;32;20419;-60
2023/10/15 03:44:04;;;;;;;0.52;0.40;;;8.50;99.90;;;;;;4388148;32;20061;-61
2023/10/15 03:46:33;;;;;;;3.40;1.05;;;8.50;99.90;;;;;;4399047;32;20149;-60
2023/10/15 03:49:00;;;;;;;0.50;0.50;;;8.50;99.90;;;;;;4399163;32;20078;-61
2023/10/15 03:51:27;;;;;;;0.30;0.30;;;8.50;99.90;;;;;;4384876;32;20094;-60
2023/10/15 03:53:52;;;;;;;0.30;0.30;;;8.40;99.90;;;;;;4399286;32;20077;-61
2023/10/15 03:56:27;;;;;;;0.20;0.20;;;8.40;99.90;;;;;;4398375;32;20081;-61
2023/10/15 03:58:53;;;;;;;0.30;0.30;;;8.40;99.90;;;;;;4394985;32;20106;-60
2023/10/15 04:01:19;;;;;;;0.47;0.47;;;8.40;99.90;;;;;;4396303;32;20839;-60
2023/10/15 04:03:47;;;;;;;0.40;0.40;;;8.50;99.90;;;;;;4382744;32;20086;-61
2023/10/15 04:06:15;;;;;;;0.40;0.40;;;8.60;99.90;;;;;;4399578;32;20565;-60
2023/10/15 04:09:08;;;;;;;0.50;0.50;;;8.60;99.90;;;;;;4396219;32;20081;-60
2023/10/15 04:11:30;;;;;;;0.30;0.30;;;8.60;99.90;;;;;;4386892;32;20149;-60
2023/10/15 04:13:58;;;;;;;0.43;0.32;;;8.50;99.90;;;;;;4398927;32;20057;-61
2023/10/15 04:16:23;;;;;;;0.40;0.40;;;8.50;99.90;;;;;;4381543;32;20154;-61
2023/10/15 04:18:49;;;;;;;0.20;0.20;;;8.50;99.90;;;;;;4398165;32;20550;-61
2023/10/15 04:21:16;;;;;;;0.30;0.30;;;8.50;99.90;;;;;;4398533;32;20097;-61
2023/10/15 04:23:49;;;;;;;0.50;0.50;;;8.40;99.90;;;;;;4395859;32;20089;-60
2023/10/15 04:26:14;;;;;;;1.08;0.98;;;8.40;99.90;;;;;;4399383;32;20062;-61
2023/10/15 04:28:40;;;;;;;0.30;0.30;;;8.40;99.90;;;;;;4386148;32;20141;-61
2023/10/15 04:31:11;;;;;;;1.65;1.05;;;8.40;99.90;;;;;;4383764;32;20089;-60
2023/10/15 04:33:41;;;;;;;2.80;0.75;;;8.40;99.90;;;;;;4371159;32;20073;-60
2023/10/15 04:36:09;;;;;;;0.30;0.30;;;8.40;99.90;;;;;;4394196;32;20635;-61
2023/10/15 04:38:36;;;;;;;1.45;0.65;;;8.30;99.90;;;;;;4394775;32;20566;-60
2023/10/15 04:41:03;;;;;;;2.37;1.10;;;8.30;99.90;;;;;;4401692;32;20061;-61
2023/10/15 04:43:30;;;;;;;2.60;0.65;;;8.30;99.90;;;;;;4398161;32;20134;-61
2023/10/15 04:45:57;;;;;;;0.30;0.30;;;8.30;99.90;;;;;;4371921;32;20449;-58
2023/10/15 04:48:27;;;;;;;36.95;0.65;;;8.30;99.90;;;;;;4384104;32;20152;-58
2023/10/15 04:50:53;;;;;;;0.53;0.53;;;8.20;99.90;;;;;;4381835;32;20529;-61
2023/10/15 04:55:48;;;;;;;0.88;0.85;;;8.20;99.90;;;;;;4398828;32;20109;-61
2023/10/15 04:58:14;;;;;;;0.60;0.50;;;8.10;99.90;;;;;;4395042;32;20141;-60
2023/10/15 05:00:48;;;;;;;0.40;0.40;;;8.00;99.90;;;;;;4383303;32;20124;-60
2023/10/15 05:03:15;;;;;;;0.30;0.30;;;8.10;99.90;;;;;;4383627;32;20748;-61
2023/10/15 05:05:42;;;;;;;0.25;0.25;;;8.10;99.90;;;;;;4375337;32;20097;-61
2023/10/15 05:08:11;;;;;;;0.62;0.62;;;8.10;99.90;;;;;;4386058;32;20107;-61
2023/10/15 05:10:38;;;;;;;0.20;0.20;;;8.10;99.90;;;;;;4400088;32;20667;-61
2023/10/15 05:13:04;;;;;;;0.30;0.30;;;8.10;99.90;;;;;;4399028;32;20074;-61
2023/10/15 05:15:29;;;;;;;0.30;0.30;;;8.20;99.90;;;;;;4401491;32;20139;-60
2023/10/15 05:17:55;;;;;;;0.65;0.65;;;8.10;99.90;;;;;;4397290;32;20093;-59
2023/10/15 05:20:20;;;;;;;0.43;0.37;;;8.10;99.90;;;;;;4400498;32;20742;-61
2023/10/15 05:22:47;;;;;;;1.12;0.47;;;8.20;99.90;;;;;;4400316;32;20482;-61
2023/10/15 05:25:17;;;;;;;3.95;1.20;;;8.20;99.90;;;;;;4376964;32;20093;-61
2023/10/15 05:27:43;;;;;;;1.45;0.95;;;8.20;99.90;;;;;;4399250;32;20136;-61
2023/10/15 05:30:10;;;;;;;1.42;0.52;;;8.20;99.90;;;;;;4401940;32;20093;-59
2023/10/15 05:32:36;;;;;;;0.20;0.20;;;8.10;99.90;;;;;;4397777;32;21383;-61
2023/10/15 05:35:02;;;;;;;0.85;0.85;;;8.20;99.90;;;;;;4401234;32;20081;-61
2023/10/15 05:37:28;;;;;;;0.85;0.82;;;8.20;99.90;;;;;;4382783;32;20110;-62
2023/10/15 05:39:53;;;;;;;0.40;0.40;;;8.10;99.90;;;;;;4398725;32;20070;-61
2023/10/15 05:42:19;;;;;;;0.20;0.20;;;8.10;99.90;;;;;;4383790;32;20439;-61
2023/10/15 05:44:45;;;;;;;2.05;1.23;;;8.00;99.90;;;;;;4401098;32;20109;-61
2023/10/15 05:47:11;;;;;;;0.30;0.30;;;8.00;99.90;;;;;;4398533;32;20094;-60
2023/10/15 05:49:37;;;;;;;0.25;0.25;;;8.00;99.90;;;;;;4402161;32;20069;-61
2023/10/15 05:52:03;;;;;;;0.28;0.28;;;8.10;99.90;;;;;;4399237;32;20141;-62
2023/10/15 05:54:32;;;;;;;0.73;0.73;;;8.10;99.90;;;;;;4399786;32;20120;-61
2023/10/15 05:56:57;;;;;;;0.20;0.20;;;8.00;99.90;;;;;;4384890;32;20090;-61
2023/10/15 05:59:23;;;;;;;0.20;0.20;;;8.00;99.90;;;;;;4400330;32;20093;-60
2023/10/15 06:01:50;;;;;;;0.20;0.20;;;8.00;99.90;;;;;;4400367;32;20103;-61
2023/10/15 06:04:16;;;;;;;0.43;0.43;;;8.10;99.90;;;;;;4399596;32;20110;-61
2023/10/15 06:06:41;;;;;;;0.40;0.40;;;8.10;99.90;;;;;;4402358;32;20080;-61
2023/10/15 06:09:07;;;;;;;0.62;0.50;;;8.10;99.90;;;;;;4398152;32;20801;-61
2023/10/15 06:11:32;;;;;;;0.62;0.57;;;8.10;99.90;;;;;;4399151;32;20090;-59
2023/10/15 06:13:58;;;;;;;1.52;0.95;;;8.10;99.90;;;;;;4384408;32;20264;-61
2023/10/15 06:16:24;;;;;;;0.37;0.37;;;8.10;99.90;;;;;;4399287;32;20077;-61
2023/10/15 06:18:49;;;;;;;0.20;0.20;;;8.10;99.90;;;;;;4383100;32;20093;-60
2023/10/15 06:21:15;;;;;;;0.40;0.40;;;8.10;99.90;;;;;;4396292;32;20081;-61
2023/10/15 06:23:41;;;;;;;0.30;0.30;;;8.10;99.90;;;;;;4398596;32;20119;-60
2023/10/15 06:26:07;;;;;;;8.68;0.32;;;8.10;99.90;;;;;;4399675;32;20073;-62
2023/10/15 06:28:32;;;;;;;1.95;0.55;;;8.10;99.90;;;;;;4398266;32;20083;-61
2023/10/15 06:30:58;;;;;;;1.30;0.60;;;8.10;99.90;;;;;;4397843;32;20128;-61
2023/10/15 06:33:23;;;;;;;0.45;0.30;;;8.10;99.90;;;;;;4396886;32;20722;-60
2023/10/15 06:35:51;;;;;;;0.30;0.30;;;8.10;99.90;;;;;;4398775;32;20057;-61
2023/10/15 06:38:17;;;;;;;4.07;0.85;;;8.20;99.90;;;;;;4394547;32;20146;-62
2023/10/15 06:40:43;;;;;;;1.35;1.25;;;8.20;99.90;;;;;;4400198;32;20931;-61
2023/10/15 06:43:09;;;;;;;0.20;0.20;;;8.20;99.90;;;;;;4397632;32;20085;-60
2023/10/15 06:45:34;;;;;;;0.28;0.28;;;8.20;99.90;;;;;;4398919;32;20373;-61
2023/10/15 06:48:01;;;;;;;0.57;0.32;;;8.20;99.90;;;;;;4396439;32;20125;-62
2023/10/15 06:50:26;;;;;;;7.37;0.50;;;8.30;99.90;;;;;;4390143;32;20131;-61
2023/10/15 06:52:52;;;;;;;1.55;0.60;;;8.30;99.90;;;;;;4385712;32;20089;-60
2023/10/15 06:55:20;;;;;;;6.87;1.27;;;8.30;99.90;;;;;;4399348;32;20073;-61
2023/10/15 06:57:45;;;;;;;0.75;0.65;;;8.40;99.90;;;;;;4395246;32;20089;-61
2023/10/15 07:00:21;;;;;;;0.85;0.47;;;8.40;99.90;;;;;;4384286;32;20833;-62
2023/10/15 07:02:47;;;;;;;1.67;0.57;;;8.40;99.90;;;;;;4387102;32;20077;-62
2023/10/15 07:05:13;;;;;;;0.35;0.35;;;8.50;99.90;;;;;;4399771;32;20189;-61
2023/10/15 07:07:38;;;;;;;0.20;0.20;;;8.50;99.90;;;;;;4398673;32;20446;-61
2023/10/15 07:10:05;;;;;;;0.22;0.22;;;8.60;99.90;;;;;;4400856;32;20474;-59
2023/10/15 07:12:32;;;;;;;0.20;0.20;;;8.60;99.90;;;;;;4396519;32;20810;-62
2023/10/15 07:14:57;;;;;;;0.30;0.30;;;8.60;99.90;;;;;;4399607;32;20077;-60
2023/10/15 07:17:23;;;;;;;0.37;0.37;;;8.60;99.90;;;;;;4378218;32;20086;-60
2023/10/15 07:19:48;;;;;;;0.50;0.50;;;8.60;99.90;;;;;;4398839;32;20091;-60
2023/10/15 07:22:14;;;;;;;0.70;0.60;;;8.70;99.90;;;;;;4398814;32;20102;-61
2023/10/15 07:24:39;;;;;;;0.40;0.40;;;8.80;99.90;;;;;;4395904;32;20660;-61
2023/10/15 07:27:05;;;;;;;1.30;0.95;;;8.80;99.90;;;;;;4397151;32;20118;-61
2023/10/15 07:29:31;;;;;;;0.30;0.30;;;8.90;99.90;;;;;;4397655;32;20098;-60
2023/10/15 07:31:56;;;;;;;1.85;0.32;;;8.90;99.90;;;;;;4396257;32;20458;-61
2023/10/15 07:34:23;;;;;;;9.65;0.95;;;9.00;99.90;;;;;;4396447;32;20467;-61
2023/10/15 07:36:51;;;;;;;3.42;0.82;;;9.00;99.90;;;;;;4374555;32;20600;-61
2023/10/15 07:39:17;;;;;;;0.30;0.30;;;9.10;99.90;;;;;;4390516;32;20185;-61
2023/10/15 07:41:43;;;;;;;1.80;1.42;;;9.00;99.90;;;;;;4392858;32;20146;-59
2023/10/15 07:44:10;;;;;;;26.77;0.98;;;9.00;99.90;;;;;;4397216;32;20069;-61
2023/10/15 07:46:35;;;;;;;0.20;0.20;;;9.00;99.90;;;;;;4382515;32;20105;-60
2023/10/15 07:49:02;;;;;;;4.00;1.77;;;9.10;99.90;;;;;;4398253;32;20164;-60
2023/10/15 07:51:29;;;;;;;0.30;0.30;;;9.10;99.90;;;;;;4395980;32;20723;-61
2023/10/15 07:53:54;;;;;;;0.30;0.28;;;9.10;99.90;;;;;;4399608;32;20077;-61
2023/10/15 07:56:21;;;;;;;0.22;0.22;;;9.10;99.90;;;;;;4394991;32;20114;-60
2023/10/15 07:58:48;;;;;;;0.30;0.30;;;9.10;99.90;;;;;;4392125;32;20455;-59
2023/10/15 08:01:14;;;;;;;0.73;0.65;;;9.10;99.90;;;;;;4383598;32;20272;-61
2023/10/15 08:03:39;;;;;;;0.30;0.30;;;9.10;99.90;;;;;;4397250;32;20082;-62
2023/10/15 08:06:05;;;;;;;0.90;0.57;;;9.20;99.90;;;;;;4397357;32;21053;-60
2023/10/15 08:08:30;;;;;;;0.40;0.40;;;9.20;99.90;;;;;;4398537;32;20212;-63
2023/10/15 08:10:56;;;;;;;0.40;0.40;;;9.20;99.90;;;;;;4399568;32;20065;-61
2023/10/15 08:13:22;;;;;;;0.47;0.47;;;9.30;99.90;;;;;;4398371;32;20082;-62
2023/10/15 08:15:47;;;;;;;0.35;0.35;;;9.30;99.90;;;;;;4376335;32;20094;-61
2023/10/15 08:18:13;;;;;;;1.10;0.65;;;9.30;99.90;;;;;;4393615;32;20112;-61
2023/10/15 08:20:38;;;;;;;0.20;0.20;;;9.30;99.90;;;;;;4394928;32;20132;-60
2023/10/15 08:23:04;;;;;;;0.20;0.20;;;9.30;99.90;;;;;;4397887;32;20106;-61
2023/10/15 08:25:31;;;;;;;0.30;0.30;;;9.40;99.90;;;;;;4397175;32;20101;-62
2023/10/15 08:27:57;;;;;;;1.35;0.52;;;9.50;99.90;;;;;;4380106;32;20074;-63
2023/10/15 08:30:23;;;;;;;0.30;0.30;;;9.40;99.90;;;;;;4397567;32;20467;-61
2023/10/15 08:32:48;;;;;;;0.20;0.20;;;9.30;99.90;;;;;;4397556;32;20082;-61
2023/10/15 08:35:15;;;;;;;0.30;0.30;;;9.30;99.90;;;;;;4399165;32;20081;-61
2023/10/15 08:37:41;;;;;;;0.43;0.43;;;9.40;99.90;;;;;;4394334;32;20189;-61
2023/10/15 08:40:07;;;;;;;0.20;0.20;;;9.40;99.90;;;;;;4388960;32;20220;-61
2023/10/15 08:42:38;;;;;;;0.10;0.10;;;9.50;99.90;;;;;;4401106;32;20493;-59
2023/10/15 08:45:05;;;;;;;2.08;0.85;;;9.40;99.90;;;;;;4387690;32;20058;-60
2023/10/15 08:47:33;;;;;;;0.20;0.20;;;9.50;99.90;;;;;;4399430;32;20498;-60
2023/10/15 08:50:00;;;;;;;0.32;0.32;;;9.50;99.90;;;;;;4399759;32;20142;-61
2023/10/15 08:52:27;;;;;;;0.20;0.20;;;9.60;99.90;;;;;;4398178;32;20545;-62
2023/10/15 08:54:54;;;;;;;0.35;0.35;;;9.70;99.90;;;;;;4385842;32;20065;-61
2023/10/15 08:57:21;;;;;;;0.30;0.30;;;9.60;99.90;;;;;;4382394;32;20090;-61
2023/10/15 08:59:47;;;;;;;4.05;0.82;;;9.70;99.90;;;;;;4400507;32;20093;-61
2023/10/15 09:02:15;;;;;;;0.30;0.30;;;9.80;99.90;;;;;;4385183;32;20115;-60
2023/10/15 09:04:44;;;;;;;0.52;0.52;;;9.90;99.90;;;;;;4398734;32;20090;-61
2023/10/15 09:07:12;;;;;;;0.30;0.30;;;9.90;99.90;;;;;;4373202;32;20084;-61
2023/10/15 09:09:38;;;;;;;0.30;0.30;;;9.70;99.90;;;;;;4397313;32;20090;-61
2023/10/15 09:12:06;;;;;;;0.52;0.52;;;9.60;99.90;;;;;;4386125;32;20591;-59
2023/10/15 09:14:44;;;;;;;0.30;0.30;;;9.60;99.90;;;;;;4398502;32;20097;-61
2023/10/15 09:17:11;;;;;;;0.20;0.20;;;9.70;99.90;;;;;;4398685;32;20443;-61
2023/10/15 09:19:38;;;;;;;0.40;0.40;;;9.80;99.90;;;;;;4397520;32;20427;-61
2023/10/15 09:22:06;;;;;;;15.10;1.90;;;9.90;99.90;;;;;;4386722;32;20090;-60
2023/10/15 09:24:31;;;;;;;0.20;0.20;;;9.90;99.90;;;;;;4384327;32;20094;-60
2023/10/15 09:26:57;;;;;;;0.20;0.20;;;9.90;99.90;;;;;;4398940;32;20058;-61
2023/10/15 09:29:23;;;;;;;0.20;0.20;;;10.00;99.90;;;;;;4398458;32;20902;-59
2023/10/15 09:31:51;;;;;;;0.13;0.13;;;10.10;99.90;;;;;;4398298;32;20180;-60
2023/10/15 09:34:18;;;;;;;0.20;0.20;;;10.30;99.90;;;;;;4371172;32;20066;-61
2023/10/15 09:36:43;;;;;;;0.30;0.30;;;10.40;99.90;;;;;;4399318;32;20094;-60
2023/10/15 09:39:13;;;;;;;0.25;0.25;;;10.30;99.90;;;;;;4397637;32;20077;-60
2023/10/15 09:41:40;;;;;;;0.25;0.25;;;10.40;99.90;;;;;;4399299;32;20090;-61
2023/10/15 09:44:09;;;;;;;0.37;0.37;;;10.50;99.90;;;;;;4400487;32;20097;-61
2023/10/15 09:46:35;;;;;;;0.22;0.22;;;10.40;99.90;;;;;;4384673;32;21505;-60
2023/10/15 09:49:04;;;;;;;0.43;0.43;;;10.30;99.90;;;;;;4399139;32;20585;-62
2023/10/15 09:51:32;;;;;;;0.30;0.30;;;10.20;99.90;;;;;;4397583;32;20761;-59
2023/10/15 09:53:59;;;;;;;1.48;0.65;;;10.20;99.90;;;;;;4387146;32;20086;-62
2023/10/15 09:56:27;;;;;;;0.20;0.20;;;10.30;99.90;;;;;;4385537;32;20108;-60
2023/10/15 09:58:53;;;;;;;0.40;0.40;;;10.30;99.90;;;;;;4398012;32;20128;-61
2023/10/15 10:01:28;;;;;;;0.20;0.20;;;10.50;99.90;;;;;;4399513;32;20161;-61
2023/10/15 10:04:23;;;;;;;0.50;0.50;;;10.60;99.90;;;;;;4386379;32;20065;-60
2023/10/15 10:07:05;;;;;;;0.20;0.20;;;10.80;99.90;;;;;;4391650;32;20147;-60
2023/10/15 10:10:01;;;;;;;0.20;0.20;;;10.90;99.90;;;;;;4401687;32;20576;-61
2023/10/15 10:12:59;;;;;;;0.30;0.30;;;10.80;99.90;;;;;;4389641;32;20181;-61
2023/10/15 10:15:42;;;;;;;0.20;0.20;;;10.80;99.90;;;;;;4390268;32;20319;-61
2023/10/15 10:18:08;;;;;;;0.30;0.30;;;10.70;99.90;;;;;;4392280;32;20062;-61
2023/10/15 10:20:37;;;;;;;2.25;1.42;;;10.70;99.90;;;;;;4397399;32;20079;-59
2023/10/15 10:23:06;;;;;;;22.55;0.65;;;10.70;99.90;;;;;;4397286;32;20086;-60
2023/10/15 10:25:42;;;;;;;0.62;0.60;;;10.80;99.90;;;;;;4400552;32;20105;-60
2023/10/15 10:28:11;;;;;;;0.20;0.20;;;10.80;99.90;;;;;;4372271;32;20093;-61
2023/10/15 10:30:39;;;;;;;0.30;0.30;;;10.80;99.90;;;;;;4399559;32;20163;-62
2023/10/15 10:33:05;;;;;;;0.25;0.25;;;10.90;99.90;;;;;;4396330;32;20090;-61
2023/10/15 10:35:46;;;;;;;0.30;0.30;;;11.00;99.90;;;;;;4385441;32;20085;-58
2023/10/15 10:38:19;;;;;;;;;;;10.90;99.90;;;;;;4396687;32;20098;-61
2023/10/15 10:40:47;;;;;;;0.20;0.20;;;10.90;99.90;;;;;;4400814;32;19968;-61
2023/10/15 10:43:21;;;;;;;0.30;0.30;;;10.90;99.90;;;;;;4386020;32;20081;-61
2023/10/15 10:45:55;;;;;;;0.20;0.20;;;11.20;99.90;;;;;;4385343;32;20053;-60
2023/10/15 10:48:24;;;;;;;0.43;0.43;;;11.40;99.90;;;;;;4399966;32;20094;-61
2023/10/15 10:51:11;;;;;;;0.25;0.25;;;11.40;99.90;;;;;;4385152;32;20125;-62
2023/10/15 10:53:37;;;;;;;0.30;0.30;;;11.30;99.90;;;;;;4390012;32;20130;-61
2023/10/15 10:56:05;;;;;;;0.75;0.75;;;11.00;99.90;;;;;;4398172;32;20699;-62
2023/10/15 10:58:30;;;;;;;0.20;0.20;;;11.00;99.90;;;;;;4399630;32;20069;-61
2023/10/15 11:00:57;;;;;;;0.20;0.20;;;11.00;99.90;;;;;;4399002;32;20230;-61
2023/10/15 11:03:23;;;;;;;0.20;0.20;;;11.00;99.90;;;;;;4398521;32;20489;-61
2023/10/15 11:05:49;;;;;;;0.30;0.30;;;11.10;99.90;;;;;;4384802;32;20098;-61
2023/10/15 11:08:19;;;;;;;0.82;0.82;;;11.20;99.90;;;;;;4399795;32;20078;-61
2023/10/15 11:10:47;;;;;;;0.25;0.25;;;11.40;99.90;;;;;;4384227;32;20090;-60
2023/10/15 11:13:15;;;;;;;0.28;0.28;;;11.80;99.90;;;;;;4384678;32;20120;-61
2023/10/15 11:15:42;;;;;;;0.20;0.20;;;11.70;99.90;;;;;;4388350;32;20070;-61
2023/10/15 11:18:09;;;;;;;0.45;0.45;;;11.60;99.90;;;;;;4392732;32;20172;-61
2023/10/15 11:20:39;;;;;;;0.30;0.30;;;11.50;99.90;;;;;;4401072;32;20082;-61
2023/10/15 11:23:06;;;;;;;0.13;0.13;;;11.60;99.90;;;;;;4398467;32;20090;-61
2023/10/15 11:25:36;;;;;;;0.43;0.43;;;11.70;99.90;;;;;;4385430;32;20082;-61
2023/10/15 11:28:05;;;;;;;0.30;0.30;;;11.60;99.90;;;;;;4396835;32;20101;-61
2023/10/15 11:30:32;;;;;;;0.20;0.20;;;11.40;99.90;;;;;;4375269;32;20070;-61
2023/10/15 11:32:59;;;;;;;0.20;0.20;;;11.30;99.90;;;;;;4380929;32;20076;-61
2023/10/15 11:35:30;;;;;;;0.30;0.30;;;11.20;99.90;;;;;;4398247;32;20129;-61
2023/10/15 11:37:56;;;;;;;0.20;0.20;;;11.20;99.90;;;;;;4391784;32;20109;-61
2023/10/15 11:40:23;;;;;;;0.30;0.30;;;11.20;99.90;;;;;;4383072;32;20141;-60
2023/10/15 11:42:51;;;;;;;1.65;0.30;;;11.20;99.90;;;;;;4398900;32;20410;-61
2023/10/15 11:45:37;;;;;;;0.20;0.20;;;11.20;99.90;;;;;;4385887;32;20097;-60
2023/10/15 11:48:04;;;;;;;0.22;0.22;;;11.20;99.90;;;;;;4381999;32;20098;-61
2023/10/15 11:50:30;;;;;;;0.30;0.30;;;11.10;99.90;;;;;;4394746;32;79314;-61
2023/10/15 11:52:55;;;;;;;0.20;0.20;;;11.00;99.90;;;;;;4396649;32;20163;-60
2023/10/15 11:55:22;;;;;;;0.20;0.20;;;11.00;99.90;;;;;;4398040;32;20078;-61
2023/10/15 11:57:50;;;;;;;0.20;0.20;;;11.00;99.90;;;;;;4393516;32;20125;-60
2023/10/15 12:00:34;;;;;;;0.20;0.20;;;11.00;99.90;;;;;;4381148;32;20073;-61
2023/10/15 12:03:00;;;;;;;0.20;0.20;;;11.10;99.90;;;;;;4396400;32;20081;-61
2023/10/15 12:05:31;;;;;;;0.20;0.20;;;11.60;99.90;;;;;;4384052;32;20136;-61
2023/10/15 12:07:59;;;;;;;0.30;0.30;;;11.50;99.90;;;;;;4396414;32;20119;-61
2023/10/15 12:10:25;;;;;;;0.20;0.20;;;11.60;99.90;;;;;;4395494;32;20479;-61
2023/10/15 12:12:50;;;;;;;0.30;0.30;;;11.70;99.90;;;;;;4398717;32;20081;-61
2023/10/15 12:15:16;;;;;;;0.20;0.20;;;12.00;99.90;;;;;;4400708;32;20172;-61
2023/10/15 12:17:41;;;;;;;0.30;0.30;;;12.20;99.90;;;;;;4395250;32;20066;-60
2023/10/15 12:20:07;;;;;;;0.30;0.30;;;12.10;99.90;;;;;;4400056;32;20094;-61
2023/10/15 12:22:33;;;;;;;0.20;0.20;;;11.90;99.90;;;;;;4400710;32;20157;-61
2023/10/15 12:25:00;;;;;;;0.30;0.30;;;11.80;99.90;;;;;;4388503;32;20093;-59
2023/10/15 12:27:28;;;;;;;0.30;0.30;;;11.50;99.90;;;;;;4400996;32;20606;-59
2023/10/15 12:29:54;;;;;;;1.30;0.90;;;11.80;99.90;;;;;;4386180;32;20105;-61
2023/10/15 12:32:21;;;;;;;0.90;0.40;;;12.70;99.90;;;;;;4400039;32;20086;-61
2023/10/15 12:34:46;;;;;;;0.30;0.30;;;13.60;99.90;;;;;;4400756;32;20089;-61
2023/10/15 12:37:13;;;;;;;0.40;0.40;;;14.10;99.90;;;;;;4396974;32;20149;-62
2023/10/15 12:39:40;;;;;;;0.25;0.25;;;14.40;99.90;;;;;;4386759;32;20128;-62
2023/10/15 12:42:08;;;;;;;0.50;0.50;;;14.20;99.90;;;;;;4387150;32;20074;-61
2023/10/15 12:44:39;;;;;;;0.22;0.22;;;14.20;99.90;;;;;;4385922;32;20081;-61
2023/10/15 12:47:04;;;;;;;0.22;0.22;;;14.20;99.90;;;;;;4384550;32;20207;-61
2023/10/15 12:49:30;;;;;;;0.90;0.50;;;14.30;99.90;;;;;;4400059;32;20077;-61
2023/10/15 12:51:58;;;;;;;0.30;0.30;;;14.10;99.90;;;;;;4398442;32;20066;-62
2023/10/15 12:54:24;;;;;;;2.28;1.05;;;13.30;99.90;;;;;;4398691;32;20602;-61
2023/10/15 12:56:49;;;;;;;0.62;0.62;;;12.80;99.90;;;;;;4396533;32;20085;-61
2023/10/15 12:59:15;;;;;;;0.30;0.30;;;12.60;99.90;;;;;;4400836;32;20058;-61
2023/10/15 13:04:06;;;;;;;0.20;0.20;;;12.70;99.90;;;;;;4400198;32;20094;-60
2023/10/15 13:06:31;;;;;;;0.40;0.40;;;12.50;99.90;;;;;;4400894;32;20093;-62
2023/10/15 13:08:57;;;;;;;0.20;0.20;;;12.50;99.90;;;;;;4399666;32;20106;-61
2023/10/15 13:11:23;;;;;;;0.30;0.30;;;12.30;99.90;;;;;;4399100;32;20140;-61